Time;durP1;ratioP1;P1;durP2;ratioP2;P2;SDS_P1;SDS_P2;PMS_P1;PMS_P2;Temp;Humidity;BMP_temperature;BMP_pressure;BME280_temperature;BME280_humidity;BME280_pressure;Samples;Min_cycle;Max_cycle;Signal;HPM_P1;HPM_P2
2023/12/28 00:00:41;;;;;;;1.60;1.20;;;8.70;99.90;;;;;;5052459;28;20448;-48
2023/12/28 00:03:09;;;;;;;2.40;1.30;;;8.70;99.90;;;;;;5045736;28;20470;-46
2023/12/28 00:05:39;;;;;;;1.90;1.53;;;8.70;99.90;;;;;;5044410;28;20434;-48
2023/12/28 00:08:07;;;;;;;2.43;1.40;;;8.70;99.90;;;;;;5041577;28;20493;-51
2023/12/28 00:10:36;;;;;;;2.07;1.47;;;8.70;99.90;;;;;;5045442;28;20886;-47
2023/12/28 00:13:05;;;;;;;1.93;1.20;;;8.70;99.90;;;;;;5039932;28;21031;-47
2023/12/28 00:15:33;;;;;;;1.73;1.00;;;8.70;99.90;;;;;;5045490;28;20434;-49
2023/12/28 00:18:01;;;;;;;2.67;1.55;;;8.70;99.90;;;;;;5051936;28;20273;-51
2023/12/28 00:20:30;;;;;;;2.57;1.67;;;8.70;99.90;;;;;;5047849;28;20214;-46
2023/12/28 00:23:00;;;;;;;1.70;1.20;;;8.70;99.90;;;;;;5038032;28;20472;-47
2023/12/28 00:25:28;;;;;;;2.00;1.70;;;8.70;99.90;;;;;;5038360;28;20427;-48
2023/12/28 00:27:56;;;;;;;2.20;1.50;;;8.70;99.90;;;;;;5040515;28;20481;-49
2023/12/28 00:30:24;;;;;;;2.63;1.63;;;8.70;99.90;;;;;;5048293;28;20539;-49
2023/12/28 00:32:52;;;;;;;3.00;1.17;;;8.70;99.90;;;;;;5057727;28;20554;-48
2023/12/28 00:35:21;;;;;;;1.70;1.10;;;8.70;99.90;;;;;;5043513;28;20528;-50
2023/12/28 00:37:49;;;;;;;2.40;1.47;;;8.70;99.90;;;;;;5063043;28;20228;-47
2023/12/28 00:40:18;;;;;;;1.95;1.45;;;8.70;99.90;;;;;;5039440;28;20459;-49
2023/12/28 00:42:46;;;;;;;2.13;1.30;;;8.70;99.90;;;;;;5040403;28;20221;-46
2023/12/28 00:45:15;;;;;;;2.30;1.33;;;8.60;99.90;;;;;;5043121;28;20446;-49
2023/12/28 00:47:43;;;;;;;1.87;1.20;;;8.70;99.90;;;;;;5045628;28;20467;-47
2023/12/28 00:50:14;;;;;;;1.70;1.27;;;8.70;99.90;;;;;;5046191;28;20485;-47
2023/12/28 00:52:43;;;;;;;1.63;1.10;;;8.70;99.90;;;;;;5046271;28;20479;-46
2023/12/28 00:55:11;;;;;;;1.97;1.33;;;8.70;99.90;;;;;;5044148;28;20442;-46
2023/12/28 00:57:41;;;;;;;1.97;1.13;;;8.60;99.90;;;;;;5043690;28;20466;-48
2023/12/28 01:00:10;;;;;;;3.40;1.60;;;8.60;99.90;;;;;;5047464;28;20461;-47
2023/12/28 01:02:38;;;;;;;2.00;1.30;;;8.70;99.90;;;;;;5047612;28;20573;-48
2023/12/28 01:05:07;;;;;;;1.40;1.03;;;8.60;99.90;;;;;;5049415;28;20435;-46
2023/12/28 01:07:35;;;;;;;2.00;1.43;;;8.70;99.90;;;;;;5038331;28;20479;-48
2023/12/28 01:10:03;;;;;;;1.88;1.10;;;8.60;99.90;;;;;;5048069;28;20447;-48
2023/12/28 01:12:31;;;;;;;1.80;1.10;;;8.70;99.90;;;;;;5049461;28;20220;-46
2023/12/28 01:15:01;;;;;;;2.27;1.60;;;8.60;99.90;;;;;;5055003;28;20444;-47
2023/12/28 01:17:30;;;;;;;2.35;1.45;;;8.60;99.90;;;;;;5048623;28;20461;-46
2023/12/28 01:19:58;;;;;;;2.70;1.50;;;8.70;99.90;;;;;;5062764;28;20223;-48
2023/12/28 01:22:27;;;;;;;1.65;1.20;;;8.70;99.90;;;;;;5041741;28;20567;-47
2023/12/28 01:24:55;;;;;;;1.60;1.20;;;8.70;99.90;;;;;;5048690;28;20193;-48
2023/12/28 01:27:23;;;;;;;2.40;1.40;;;8.70;99.90;;;;;;5049556;28;20314;-47
2023/12/28 01:29:51;;;;;;;2.63;1.50;;;8.60;99.90;;;;;;5044754;28;20220;-47
2023/12/28 01:32:20;;;;;;;2.17;1.50;;;8.70;99.90;;;;;;5043832;28;20618;-47
2023/12/28 01:34:48;;;;;;;2.03;1.13;;;8.60;99.90;;;;;;5045411;28;20847;-48
2023/12/28 01:37:17;;;;;;;1.90;1.50;;;8.60;99.90;;;;;;5038871;28;20472;-47
2023/12/28 01:39:45;;;;;;;2.50;1.42;;;8.60;99.90;;;;;;5046373;28;20464;-48
2023/12/28 01:42:13;;;;;;;2.45;1.55;;;8.60;99.90;;;;;;5049256;28;20281;-47
2023/12/28 01:44:41;;;;;;;1.40;1.00;;;8.70;99.90;;;;;;5044792;28;20203;-47
2023/12/28 01:47:09;;;;;;;2.40;1.40;;;8.60;99.90;;;;;;5051320;28;20479;-49
2023/12/28 01:49:39;;;;;;;1.90;1.30;;;8.60;99.90;;;;;;5044789;28;20447;-47
2023/12/28 01:52:08;;;;;;;2.13;1.23;;;8.60;99.90;;;;;;5044221;28;20251;-47
2023/12/28 01:54:37;;;;;;;2.10;1.30;;;8.70;99.90;;;;;;5044794;28;20425;-48
2023/12/28 01:57:06;;;;;;;2.07;1.17;;;8.70;99.90;;;;;;5042506;28;20469;-47
2023/12/28 01:59:34;;;;;;;1.90;1.30;;;8.70;99.90;;;;;;5045241;28;20470;-47
2023/12/28 02:02:03;;;;;;;1.80;1.13;;;8.60;99.90;;;;;;5046019;28;21226;-47
2023/12/28 02:04:32;;;;;;;2.93;1.20;;;8.60;99.90;;;;;;5036593;28;20440;-47
2023/12/28 02:07:02;;;;;;;1.40;1.10;;;8.60;99.90;;;;;;5047409;28;20890;-46
2023/12/28 02:09:30;;;;;;;1.77;1.20;;;8.60;99.90;;;;;;5049234;28;20461;-47
2023/12/28 02:11:58;;;;;;;2.00;1.40;;;8.60;99.90;;;;;;5046572;28;20465;-47
2023/12/28 02:14:26;;;;;;;2.00;1.33;;;8.60;99.90;;;;;;5042481;28;20506;-47
2023/12/28 02:17:01;;;;;;;2.10;1.30;;;8.60;99.90;;;;;;5044396;28;20436;-47
2023/12/28 02:19:35;;;;;;;2.27;1.47;;;8.60;99.90;;;;;;5042809;28;20457;-47
2023/12/28 02:22:05;;;;;;;1.60;1.13;;;8.60;99.90;;;;;;5039405;28;20459;-51
2023/12/28 02:24:33;;;;;;;1.97;1.53;;;8.70;99.90;;;;;;5048835;28;20423;-47
2023/12/28 02:27:02;;;;;;;2.00;1.40;;;8.70;99.90;;;;;;5043598;28;20837;-50
2023/12/28 02:29:31;;;;;;;1.93;1.20;;;8.70;99.90;;;;;;5041134;28;20472;-46
2023/12/28 02:32:04;;;;;;;1.70;1.07;;;8.70;99.90;;;;;;5040905;28;20460;-47
2023/12/28 02:34:40;;;;;;;1.95;1.10;;;8.60;99.90;;;;;;5044314;28;20441;-46
2023/12/28 02:37:12;;;;;;;2.17;1.53;;;8.70;99.90;;;;;;5045756;28;20231;-48
2023/12/28 02:39:44;;;;;;;1.90;1.03;;;8.60;99.90;;;;;;5048012;28;20560;-48
2023/12/28 02:42:12;;;;;;;1.50;1.17;;;8.60;99.90;;;;;;5051291;28;20475;-50
2023/12/28 02:44:40;;;;;;;2.33;1.30;;;8.70;99.90;;;;;;5032899;28;20479;-46
2023/12/28 02:47:09;;;;;;;1.67;1.17;;;8.60;99.90;;;;;;5048613;28;20968;-48
2023/12/28 02:49:38;;;;;;;2.50;1.77;;;8.70;99.90;;;;;;5042201;28;20868;-50
2023/12/28 02:52:06;;;;;;;1.60;1.10;;;8.70;99.90;;;;;;5046917;28;21110;-50
2023/12/28 02:54:34;;;;;;;2.10;1.33;;;8.70;99.90;;;;;;5041418;28;20429;-48
2023/12/28 02:57:02;;;;;;;1.53;1.20;;;8.70;99.90;;;;;;5047825;28;20512;-48
2023/12/28 02:59:32;;;;;;;1.50;1.00;;;8.60;99.90;;;;;;5044432;28;20529;-48
2023/12/28 03:02:00;;;;;;;2.47;1.30;;;8.70;99.90;;;;;;5042984;28;20960;-49
2023/12/28 03:04:28;;;;;;;2.80;1.93;;;8.60;99.90;;;;;;5050635;28;21005;-49
2023/12/28 03:06:56;;;;;;;2.07;1.13;;;8.70;99.90;;;;;;5042276;28;20950;-48
2023/12/28 03:09:24;;;;;;;1.83;1.20;;;8.70;99.90;;;;;;5048312;28;20841;-47
2023/12/28 03:11:52;;;;;;;2.00;1.40;;;8.60;99.90;;;;;;5054090;28;20438;-48
2023/12/28 03:14:21;;;;;;;1.70;1.27;;;8.70;99.90;;;;;;5045435;28;20470;-48
2023/12/28 03:16:51;;;;;;;1.67;1.30;;;8.60;99.90;;;;;;5052222;28;20460;-50
2023/12/28 03:19:19;;;;;;;2.93;1.20;;;8.60;99.90;;;;;;5050252;28;20493;-49
2023/12/28 03:21:47;;;;;;;3.33;1.40;;;8.70;99.90;;;;;;5047884;28;20442;-46
2023/12/28 03:24:15;;;;;;;1.30;0.90;;;8.60;99.90;;;;;;5049795;28;20478;-49
2023/12/28 03:26:43;;;;;;;2.37;1.43;;;8.60;99.90;;;;;;5046666;28;21051;-48
2023/12/28 03:29:11;;;;;;;1.93;1.00;;;8.70;99.90;;;;;;5048080;28;20541;-47
2023/12/28 03:31:40;;;;;;;1.53;1.17;;;8.70;99.90;;;;;;5051773;28;20459;-48
2023/12/28 03:34:10;;;;;;;1.50;1.10;;;8.70;99.90;;;;;;5045084;28;20462;-47
2023/12/28 03:36:38;;;;;;;2.20;1.17;;;8.70;99.90;;;;;;5051376;28;20782;-48
2023/12/28 03:39:06;;;;;;;1.57;1.07;;;8.70;99.90;;;;;;5051626;28;20454;-47
2023/12/28 03:41:35;;;;;;;2.60;1.40;;;8.60;99.90;;;;;;5053456;28;20462;-49
2023/12/28 03:44:03;;;;;;;2.07;1.50;;;8.60;99.90;;;;;;5039927;28;20472;-48
2023/12/28 03:46:31;;;;;;;1.75;1.30;;;8.60;99.90;;;;;;5053235;28;20477;-46
2023/12/28 03:48:59;;;;;;;1.83;1.17;;;8.60;99.90;;;;;;5050275;28;20354;-49
2023/12/28 03:51:29;;;;;;;1.37;1.00;;;8.60;99.90;;;;;;5049187;28;20438;-48
2023/12/28 03:53:57;;;;;;;2.05;1.00;;;8.70;99.90;;;;;;5042737;28;20485;-48
2023/12/28 03:56:27;;;;;;;1.50;1.07;;;8.70;99.90;;;;;;5045943;28;20206;-47
2023/12/28 03:58:55;;;;;;;1.40;1.00;;;8.70;99.90;;;;;;5048929;28;21038;-49
2023/12/28 04:01:23;;;;;;;3.30;1.20;;;8.70;99.90;;;;;;5049346;28;20483;-47
2023/12/28 04:03:51;;;;;;;1.77;1.30;;;8.70;99.90;;;;;;5045092;28;21040;-47
2023/12/28 04:06:20;;;;;;;1.57;1.20;;;8.70;99.90;;;;;;5041746;28;20440;-46
2023/12/28 04:08:49;;;;;;;1.83;1.30;;;8.70;99.90;;;;;;5050995;28;20467;-47
2023/12/28 04:11:18;;;;;;;1.93;1.13;;;8.60;99.90;;;;;;5047159;28;20442;-47
2023/12/28 04:13:46;;;;;;;2.03;0.97;;;8.60;99.90;;;;;;5039908;28;20471;-48
2023/12/28 04:16:14;;;;;;;2.17;1.20;;;8.60;99.90;;;;;;5053178;28;20434;-47
2023/12/28 04:18:42;;;;;;;2.17;1.00;;;8.60;99.90;;;;;;5047403;28;21010;-47
2023/12/28 04:21:11;;;;;;;2.43;1.60;;;8.60;99.90;;;;;;5058021;28;21103;-51
2023/12/28 04:23:42;;;;;;;3.23;1.07;;;8.60;99.90;;;;;;5044649;28;20654;-48
2023/12/28 04:26:11;;;;;;;1.40;1.10;;;8.70;99.90;;;;;;5047152;28;20428;-49
2023/12/28 04:28:40;;;;;;;2.90;1.03;;;8.60;99.90;;;;;;5043132;28;20905;-48
2023/12/28 04:31:08;;;;;;;1.73;1.40;;;8.60;99.90;;;;;;5048411;28;20875;-47
2023/12/28 04:33:36;;;;;;;2.60;0.90;;;8.70;99.90;;;;;;5047909;28;20840;-50
2023/12/28 04:36:06;;;;;;;1.60;1.23;;;8.60;99.90;;;;;;5046680;28;20459;-50
2023/12/28 04:38:34;;;;;;;2.10;1.30;;;8.70;99.90;;;;;;5044476;28;20779;-50
2023/12/28 04:41:03;;;;;;;2.13;1.40;;;8.70;99.90;;;;;;5063416;28;20840;-49
2023/12/28 04:43:32;;;;;;;2.30;1.10;;;8.70;99.90;;;;;;5054722;28;20463;-47
2023/12/28 04:46:03;;;;;;;2.33;1.00;;;8.60;99.90;;;;;;5051734;28;20453;-47
2023/12/28 04:48:32;;;;;;;1.80;1.03;;;8.70;99.90;;;;;;5046563;28;20465;-47
2023/12/28 04:51:03;;;;;;;1.63;1.10;;;8.70;99.90;;;;;;5053025;28;20447;-46
2023/12/28 04:53:31;;;;;;;1.47;0.90;;;8.70;99.90;;;;;;5042477;28;20543;-49
2023/12/28 04:56:00;;;;;;;1.90;1.00;;;8.70;99.90;;;;;;5046106;28;21007;-49
2023/12/28 04:58:28;;;;;;;1.73;1.30;;;8.70;99.90;;;;;;5051106;28;20543;-49
2023/12/28 05:00:58;;;;;;;1.63;0.90;;;8.70;99.90;;;;;;5043995;28;20490;-47
2023/12/28 05:03:26;;;;;;;2.17;1.10;;;8.70;99.90;;;;;;5049460;28;20855;-47
2023/12/28 05:05:54;;;;;;;2.20;1.10;;;8.70;99.90;;;;;;5047814;28;20431;-48
2023/12/28 05:08:22;;;;;;;2.33;1.27;;;8.70;99.90;;;;;;5045549;28;20983;-46
2023/12/28 05:10:50;;;;;;;2.13;1.30;;;8.60;99.90;;;;;;5043171;28;20493;-47
2023/12/28 05:13:18;;;;;;;1.47;0.90;;;8.70;99.90;;;;;;5044233;28;20511;-46
2023/12/28 05:15:46;;;;;;;2.40;1.23;;;8.70;99.90;;;;;;5041963;28;20431;-47
2023/12/28 05:18:16;;;;;;;1.73;1.10;;;8.60;99.90;;;;;;5051808;28;20470;-47
2023/12/28 05:20:44;;;;;;;1.93;1.23;;;8.70;99.90;;;;;;5047845;28;20498;-47
2023/12/28 05:23:12;;;;;;;1.83;1.27;;;8.70;99.90;;;;;;5051711;28;20490;-48
2023/12/28 05:25:40;;;;;;;2.20;1.30;;;8.60;99.90;;;;;;5049324;28;20471;-48
2023/12/28 05:28:08;;;;;;;1.67;1.03;;;8.60;99.90;;;;;;5046133;28;20476;-46
2023/12/28 05:30:37;;;;;;;3.10;1.37;;;8.60;99.90;;;;;;5047433;28;20467;-47
2023/12/28 05:33:05;;;;;;;1.63;1.20;;;8.60;99.90;;;;;;5048456;28;20459;-46
2023/12/28 05:35:35;;;;;;;2.70;1.63;;;8.60;99.90;;;;;;5046430;28;20426;-47
2023/12/28 05:38:04;;;;;;;2.20;0.97;;;8.60;99.90;;;;;;5043176;28;20910;-45
2023/12/28 05:40:32;;;;;;;2.57;1.27;;;8.70;99.90;;;;;;5050456;28;20449;-46
2023/12/28 05:43:00;;;;;;;2.03;1.10;;;8.60;99.90;;;;;;5045186;28;20525;-46
2023/12/28 05:45:28;;;;;;;2.50;1.37;;;8.60;99.90;;;;;;5049529;28;20458;-46
2023/12/28 05:47:57;;;;;;;2.20;0.97;;;8.70;99.90;;;;;;5037340;28;21043;-46
2023/12/28 05:50:25;;;;;;;2.67;1.00;;;8.60;99.90;;;;;;5053856;28;20442;-46
2023/12/28 05:52:55;;;;;;;1.87;1.13;;;8.60;99.90;;;;;;5044508;28;20463;-45
2023/12/28 05:55:23;;;;;;;1.55;1.00;;;8.70;99.90;;;;;;5050219;28;20428;-47
2023/12/28 05:57:51;;;;;;;1.90;1.00;;;8.60;99.90;;;;;;5040743;28;20621;-46
2023/12/28 06:00:19;;;;;;;1.80;0.80;;;8.60;99.90;;;;;;5050469;28;20824;-48
2023/12/28 06:02:51;;;;;;;1.37;1.10;;;8.70;99.90;;;;;;5049680;28;21003;-46
2023/12/28 06:05:19;;;;;;;3.00;1.37;;;8.70;99.90;;;;;;5045809;28;20483;-47
2023/12/28 06:07:47;;;;;;;1.40;1.00;;;8.70;99.90;;;;;;5046274;28;20590;-46
2023/12/28 06:10:17;;;;;;;1.70;1.03;;;8.70;99.90;;;;;;5048129;28;20285;-47
2023/12/28 06:12:45;;;;;;;1.73;1.20;;;8.60;99.90;;;;;;5041452;28;20466;-46
2023/12/28 06:15:13;;;;;;;2.83;1.00;;;8.70;99.90;;;;;;5043739;28;20439;-46
2023/12/28 06:17:42;;;;;;;2.73;1.03;;;8.70;99.90;;;;;;5045014;28;20467;-46
2023/12/28 06:20:11;;;;;;;2.33;1.20;;;8.60;99.90;;;;;;5046800;28;20541;-47
2023/12/28 06:22:40;;;;;;;1.60;0.97;;;8.60;99.90;;;;;;5046328;28;21140;-48
2023/12/28 06:25:08;;;;;;;2.07;0.87;;;8.70;99.90;;;;;;5047015;28;20532;-46
2023/12/28 06:27:37;;;;;;;1.97;1.23;;;8.70;99.90;;;;;;5044817;28;20466;-47
2023/12/28 06:30:07;;;;;;;2.60;1.27;;;8.60;99.90;;;;;;5046630;28;20458;-47
2023/12/28 06:32:35;;;;;;;2.17;1.13;;;8.60;99.90;;;;;;5033191;28;20481;-46
2023/12/28 06:35:04;;;;;;;3.57;1.00;;;8.60;99.90;;;;;;5047389;28;20285;-47
2023/12/28 06:37:32;;;;;;;1.60;1.00;;;8.60;99.90;;;;;;5043522;28;20479;-46
2023/12/28 06:40:00;;;;;;;5.30;2.00;;;8.60;99.90;;;;;;5048356;28;20518;-46
2023/12/28 06:42:28;;;;;;;2.60;0.80;;;8.60;99.90;;;;;;5039856;28;20872;-46
2023/12/28 06:44:58;;;;;;;1.83;1.07;;;8.60;99.90;;;;;;5049710;28;20466;-47
2023/12/28 06:47:26;;;;;;;1.80;1.20;;;8.60;99.90;;;;;;5056307;28;20457;-46
2023/12/28 06:49:54;;;;;;;3.30;1.43;;;8.70;99.90;;;;;;5050389;28;20547;-47
2023/12/28 06:52:23;;;;;;;2.10;1.02;;;8.70;99.90;;;;;;5051262;28;20459;-48
2023/12/28 06:54:52;;;;;;;1.73;1.30;;;8.70;99.90;;;;;;5049582;28;20655;-49
2023/12/28 06:57:20;;;;;;;1.90;1.10;;;8.70;99.90;;;;;;5049161;28;20463;-49
2023/12/28 06:59:48;;;;;;;2.90;1.30;;;8.60;99.90;;;;;;5042787;28;20562;-46
2023/12/28 07:02:17;;;;;;;1.87;1.13;;;8.70;99.90;;;;;;5052027;28;20504;-46
2023/12/28 07:04:45;;;;;;;2.90;1.10;;;8.70;99.90;;;;;;5053749;28;20459;-47
2023/12/28 07:07:14;;;;;;;1.52;1.05;;;8.70;99.90;;;;;;5052284;28;20509;-50
2023/12/28 07:09:42;;;;;;;2.60;1.40;;;8.60;99.90;;;;;;5049126;28;20291;-50
2023/12/28 07:12:10;;;;;;;1.80;1.00;;;8.70;99.90;;;;;;5049128;28;20220;-47
2023/12/28 07:14:38;;;;;;;3.70;1.40;;;8.60;99.90;;;;;;5043557;28;20860;-49
2023/12/28 07:17:06;;;;;;;2.47;1.20;;;8.70;99.90;;;;;;5042742;28;20462;-46
2023/12/28 07:19:36;;;;;;;1.80;1.13;;;8.60;99.90;;;;;;5048673;28;20499;-49
2023/12/28 07:22:04;;;;;;;1.57;0.90;;;8.60;99.90;;;;;;5045998;28;20517;-47
2023/12/28 07:24:32;;;;;;;2.37;1.27;;;8.70;99.90;;;;;;5049173;28;20910;-47
2023/12/28 07:27:00;;;;;;;1.67;1.00;;;8.60;99.90;;;;;;5049415;28;20455;-49
2023/12/28 07:29:28;;;;;;;3.43;1.40;;;8.60;99.90;;;;;;5046282;28;20488;-46
2023/12/28 07:31:56;;;;;;;1.50;1.00;;;8.70;99.90;;;;;;5042065;28;20931;-47
2023/12/28 07:34:25;;;;;;;2.10;1.20;;;8.60;99.90;;;;;;5052519;28;20825;-48
2023/12/28 07:36:54;;;;;;;1.90;1.13;;;8.60;99.90;;;;;;5045014;28;20925;-47
2023/12/28 07:39:22;;;;;;;1.57;0.90;;;8.70;99.90;;;;;;5048609;28;20968;-49
2023/12/28 07:41:51;;;;;;;3.10;1.10;;;8.60;99.90;;;;;;5048480;28;21073;-47
2023/12/28 07:44:19;;;;;;;1.50;0.80;;;8.60;99.90;;;;;;5045385;28;20473;-50
2023/12/28 07:46:47;;;;;;;2.80;1.00;;;8.60;99.90;;;;;;5050421;28;20549;-48
2023/12/28 07:49:15;;;;;;;2.50;1.23;;;8.70;99.90;;;;;;5047248;28;20435;-47
2023/12/28 07:51:43;;;;;;;2.23;1.30;;;8.60;99.90;;;;;;5043492;28;21197;-46
2023/12/28 07:54:13;;;;;;;2.00;1.00;;;8.60;99.90;;;;;;5044773;28;20478;-47
2023/12/28 07:56:41;;;;;;;1.50;1.00;;;8.70;99.90;;;;;;5052495;28;20882;-47
2023/12/28 07:59:10;;;;;;;1.40;1.07;;;8.60;99.90;;;;;;5045323;28;20495;-47
2023/12/28 08:01:38;;;;;;;2.97;1.20;;;8.60;99.90;;;;;;5053566;28;20454;-50
2023/12/28 08:04:06;;;;;;;3.67;1.37;;;8.60;99.90;;;;;;5056660;28;20912;-46
2023/12/28 08:06:34;;;;;;;2.10;1.23;;;8.60;99.90;;;;;;5049641;28;20474;-47
2023/12/28 08:09:03;;;;;;;1.60;0.90;;;8.60;99.90;;;;;;5051905;28;20470;-46
2023/12/28 08:11:33;;;;;;;2.30;1.30;;;8.60;99.90;;;;;;5051647;28;20523;-48
2023/12/28 08:14:01;;;;;;;1.43;0.80;;;8.60;99.90;;;;;;5048941;28;20964;-47
2023/12/28 08:16:29;;;;;;;1.60;1.20;;;8.60;99.90;;;;;;5062319;28;20439;-47
2023/12/28 08:18:57;;;;;;;2.47;1.40;;;8.60;99.90;;;;;;5056467;28;20458;-47
2023/12/28 08:21:26;;;;;;;1.90;1.60;;;8.60;99.90;;;;;;5051970;28;20443;-47
2023/12/28 08:23:54;;;;;;;2.70;0.97;;;8.60;99.90;;;;;;5054498;28;20469;-47
2023/12/28 08:26:22;;;;;;;1.70;1.00;;;8.60;99.90;;;;;;5053013;28;20479;-47
2023/12/28 08:28:51;;;;;;;2.00;1.10;;;8.60;99.90;;;;;;5045715;28;20459;-47
2023/12/28 08:31:19;;;;;;;2.23;1.23;;;8.70;99.90;;;;;;5048473;28;20949;-46
2023/12/28 08:33:48;;;;;;;2.53;1.40;;;8.60;99.90;;;;;;5050566;28;20520;-47
2023/12/28 08:36:17;;;;;;;2.03;1.13;;;8.60;99.90;;;;;;5050524;28;20532;-47
2023/12/28 08:38:46;;;;;;;1.40;0.90;;;8.60;99.90;;;;;;5044333;28;20467;-46
2023/12/28 08:41:21;;;;;;;2.43;1.23;;;8.60;99.90;;;;;;5063716;28;20512;-47
2023/12/28 08:43:49;;;;;;;1.97;1.03;;;8.70;99.90;;;;;;5043769;28;20474;-48
2023/12/28 08:46:19;;;;;;;2.30;1.17;;;8.60;99.90;;;;;;5051177;28;20466;-47
2023/12/28 08:48:48;;;;;;;1.80;0.90;;;8.70;99.90;;;;;;5044874;28;20477;-47
2023/12/28 08:51:16;;;;;;;2.70;1.10;;;8.70;99.90;;;;;;5040365;28;20683;-48
2023/12/28 08:53:44;;;;;;;1.67;1.07;;;8.60;99.90;;;;;;5053037;28;20554;-47
2023/12/28 08:56:18;;;;;;;2.43;1.50;;;8.70;99.90;;;;;;5055477;28;20444;-45
2023/12/28 08:58:47;;;;;;;2.17;1.30;;;8.70;99.90;;;;;;5042245;28;20479;-49
2023/12/28 09:01:21;;;;;;;2.23;1.10;;;8.60;99.90;;;;;;5055398;28;20981;-46
2023/12/28 09:03:50;;;;;;;6.33;2.20;;;8.60;99.90;;;;;;5052651;28;20470;-49
2023/12/28 09:06:19;;;;;;;2.83;1.37;;;8.70;99.90;;;;;;5052059;28;20987;-47
2023/12/28 09:08:51;;;;;;;1.90;0.90;;;8.60;99.90;;;;;;5042380;28;20467;-46
2023/12/28 09:11:20;;;;;;;1.85;1.10;;;8.60;99.90;;;;;;5044238;28;20424;-46
2023/12/28 09:13:48;;;;;;;3.03;1.40;;;8.60;99.90;;;;;;5037797;28;20219;-46
2023/12/28 09:16:16;;;;;;;2.90;1.40;;;8.60;99.90;;;;;;5051517;28;20449;-46
2023/12/28 09:18:46;;;;;;;1.67;1.10;;;8.60;99.90;;;;;;5053129;28;20919;-45
2023/12/28 09:21:14;;;;;;;3.42;1.10;;;8.70;99.90;;;;;;5053383;28;20478;-46
2023/12/28 09:23:43;;;;;;;1.60;1.20;;;8.60;99.90;;;;;;5039285;28;20273;-47
2023/12/28 09:26:11;;;;;;;2.23;0.90;;;8.60;99.90;;;;;;5050111;28;20213;-46
2023/12/28 09:28:40;;;;;;;2.43;1.03;;;8.70;99.90;;;;;;5033350;28;20470;-46
2023/12/28 09:31:08;;;;;;;2.20;0.97;;;8.60;99.90;;;;;;5054072;28;20968;-46
2023/12/28 09:33:36;;;;;;;1.97;1.23;;;8.60;99.90;;;;;;5050929;28;20470;-45
2023/12/28 09:36:07;;;;;;;4.40;1.70;;;8.60;99.90;;;;;;5044599;28;20956;-45
2023/12/28 09:38:36;;;;;;;2.47;1.10;;;8.60;99.90;;;;;;5044816;28;20462;-46
2023/12/28 09:41:14;;;;;;;2.20;1.07;;;8.60;99.90;;;;;;5052906;28;20462;-45
2023/12/28 09:43:50;;;;;;;2.33;1.13;;;8.70;99.90;;;;;;5048949;28;20478;-47
2023/12/28 09:46:18;;;;;;;3.67;1.10;;;8.60;99.90;;;;;;5049796;28;20910;-47
2023/12/28 09:48:46;;;;;;;3.30;1.27;;;8.70;99.90;;;;;;5043183;28;20463;-47
2023/12/28 09:51:17;;;;;;;1.80;1.00;;;8.70;99.90;;;;;;5042441;28;20467;-48
2023/12/28 09:53:46;;;;;;;3.83;1.73;;;8.70;99.90;;;;;;5039826;28;20463;-47
2023/12/28 09:56:15;;;;;;;7.60;1.73;;;8.80;99.90;;;;;;5044395;28;21298;-45
2023/12/28 09:58:44;;;;;;;5.30;1.23;;;8.90;99.90;;;;;;5044987;28;20510;-46
2023/12/28 10:01:18;;;;;;;3.60;1.57;;;8.80;99.90;;;;;;5046847;28;20845;-46
2023/12/28 10:03:46;;;;;;;3.47;1.70;;;8.80;99.90;;;;;;5050593;28;20459;-46
2023/12/28 10:06:21;;;;;;;2.70;1.53;;;8.80;99.90;;;;;;5055363;28;20582;-45
2023/12/28 10:08:50;;;;;;;2.13;1.40;;;8.80;99.90;;;;;;5036289;28;20907;-46
2023/12/28 10:11:20;;;;;;;2.43;1.30;;;8.80;99.90;;;;;;5050258;28;20808;-46
2023/12/28 10:13:50;;;;;;;7.00;1.90;;;8.80;99.90;;;;;;5038135;28;20507;-47
2023/12/28 10:16:18;;;;;;;4.17;1.60;;;8.80;99.90;;;;;;5051908;28;20445;-45
2023/12/28 10:18:46;;;;;;;8.10;2.00;;;8.90;99.90;;;;;;5046410;28;20459;-46
2023/12/28 10:21:15;;;;;;;6.77;2.30;;;9.00;99.90;;;;;;5042982;28;20494;-46
2023/12/28 10:23:45;;;;;;;4.97;1.93;;;9.10;99.90;;;;;;5051582;28;20557;-46
2023/12/28 10:26:13;;;;;;;6.73;2.80;;;9.10;99.90;;;;;;5048774;28;21066;-45
2023/12/28 10:28:42;;;;;;;4.50;2.20;;;9.10;99.90;;;;;;5043285;28;20475;-46
2023/12/28 10:31:11;;;;;;;8.13;2.57;;;9.10;99.90;;;;;;5042710;28;20447;-46
2023/12/28 10:33:41;;;;;;;7.33;2.13;;;9.10;99.90;;;;;;5048689;28;20458;-46
2023/12/28 10:36:13;;;;;;;4.57;2.10;;;9.10;99.90;;;;;;5052854;28;20522;-46
2023/12/28 10:38:44;;;;;;;6.90;2.50;;;9.10;99.90;;;;;;5044654;28;20474;-46
2023/12/28 10:41:14;;;;;;;4.70;2.30;;;9.10;99.90;;;;;;5051781;28;20562;-46
2023/12/28 10:43:47;;;;;;;4.63;2.33;;;9.00;99.90;;;;;;5040711;28;21059;-46
2023/12/28 10:46:28;;;;;;;7.63;2.60;;;9.00;99.90;;;;;;5053801;28;20923;-47
2023/12/28 10:49:01;;;;;;;5.80;2.70;;;9.00;99.90;;;;;;5044085;28;21043;-46
2023/12/28 10:51:30;;;;;;;3.53;1.87;;;9.00;99.90;;;;;;5044828;28;20443;-47
2023/12/28 10:54:13;;;;;;;6.53;2.50;;;9.00;99.90;;;;;;5051557;28;21011;-46
2023/12/28 10:56:47;;;;;;;6.00;1.70;;;9.00;99.90;;;;;;5057802;28;20434;-47
2023/12/28 10:59:30;;;;;;;4.30;2.17;;;9.00;99.90;;;;;;5045798;28;20473;-46
2023/12/28 11:02:03;;;;;;;3.33;1.73;;;9.00;99.90;;;;;;5030996;28;20419;-46
2023/12/28 11:04:42;;;;;;;4.30;1.67;;;9.00;99.90;;;;;;5040133;28;20458;-45
2023/12/28 11:07:12;;;;;;;7.47;2.13;;;9.00;99.90;;;;;;5046719;28;20458;-46
2023/12/28 11:09:43;;;;;;;5.73;2.23;;;9.10;99.90;;;;;;5040203;28;20440;-46
2023/12/28 11:12:12;;;;;;;4.77;1.53;;;9.30;99.90;;;;;;5045923;28;20964;-46
2023/12/28 11:14:41;;;;;;;2.10;1.10;;;9.40;99.90;;;;;;5045994;28;20492;-45
2023/12/28 11:17:11;;;;;;;5.20;1.60;;;9.40;99.90;;;;;;5052474;28;20840;-45
2023/12/28 11:19:40;;;;;;;6.63;1.67;;;9.40;99.90;;;;;;5046855;28;20453;-46
2023/12/28 11:22:09;;;;;;;4.73;1.87;;;9.50;99.90;;;;;;5045956;28;20448;-46
2023/12/28 11:24:37;;;;;;;4.97;1.67;;;9.50;99.90;;;;;;5051455;28;20526;-47
2023/12/28 11:27:08;;;;;;;7.63;1.90;;;9.50;99.90;;;;;;5046424;28;20826;-48
2023/12/28 11:29:39;;;;;;;8.03;1.87;;;9.60;99.90;;;;;;5048080;28;20523;-51
2023/12/28 11:32:10;;;;;;;2.97;1.73;;;9.60;99.90;;;;;;5045925;28;20429;-49
2023/12/28 11:34:38;;;;;;;9.60;2.20;;;9.60;99.90;;;;;;5044402;28;20432;-49
2023/12/28 11:37:10;;;;;;;2.73;1.40;;;9.60;99.90;;;;;;5041539;28;20477;-50
2023/12/28 11:39:38;;;;;;;7.70;1.63;;;9.60;99.90;;;;;;5055541;28;20456;-49
2023/12/28 11:42:10;;;;;;;4.60;1.87;;;9.60;99.90;;;;;;5039481;28;20872;-47
2023/12/28 11:49:33;;;;;;;7.33;2.80;;;9.70;99.90;;;;;;5061518;27;20572;-47
2023/12/28 11:52:01;;;;;;;6.77;1.90;;;9.70;99.90;;;;;;5033754;28;20519;-47
2023/12/28 11:54:29;;;;;;;8.03;2.40;;;9.80;99.90;;;;;;5008549;28;20913;-48
2023/12/28 11:56:58;;;;;;;6.07;2.20;;;9.80;99.90;;;;;;4998234;28;21721;-47
2023/12/28 11:59:26;;;;;;;6.20;2.00;;;9.90;99.90;;;;;;5020335;28;20541;-47
2023/12/28 12:01:54;;;;;;;3.53;1.53;;;9.90;99.90;;;;;;5022650;28;20416;-47
2023/12/28 12:04:23;;;;;;;6.07;1.80;;;9.90;99.90;;;;;;5024679;28;20437;-50
2023/12/28 12:06:53;;;;;;;5.33;1.93;;;9.90;99.90;;;;;;5019214;28;20951;-49
2023/12/28 12:09:22;;;;;;;7.80;2.33;;;9.80;99.90;;;;;;5020063;28;20846;-49
2023/12/28 12:11:52;;;;;;;6.80;1.93;;;9.80;99.90;;;;;;5019327;28;20425;-52
2023/12/28 12:14:20;;;;;;;3.53;1.60;;;9.80;99.90;;;;;;5018806;28;20483;-48
2023/12/28 12:16:48;;;;;;;6.23;2.80;;;9.80;99.90;;;;;;5023410;28;20427;-48
2023/12/28 12:19:17;;;;;;;5.60;1.63;;;9.70;99.90;;;;;;5026562;28;20464;-47
2023/12/28 12:21:45;;;;;;;2.80;1.40;;;9.70;99.90;;;;;;5017388;28;20458;-51
2023/12/28 12:24:15;;;;;;;6.77;1.87;;;9.70;99.90;;;;;;5019688;28;20468;-48
2023/12/28 12:26:43;;;;;;;3.63;1.70;;;9.70;99.90;;;;;;5022325;28;20771;-46
2023/12/28 12:29:15;;;;;;;3.10;1.60;;;9.70;99.90;;;;;;5018156;28;20513;-49
2023/12/28 12:31:44;;;;;;;4.57;1.50;;;9.70;99.90;;;;;;5024810;28;20441;-48
2023/12/28 12:34:16;;;;;;;3.60;1.60;;;9.70;99.90;;;;;;5023531;28;20492;-48
2023/12/28 12:36:45;;;;;;;4.50;1.70;;;9.70;99.90;;;;;;5019764;28;20451;-48
2023/12/28 12:39:15;;;;;;;2.90;0.90;;;9.70;99.90;;;;;;5018238;28;20459;-44
2023/12/28 12:41:43;;;;;;;3.20;1.60;;;9.60;99.90;;;;;;5021310;28;20532;-50
2023/12/28 12:44:12;;;;;;;4.70;1.20;;;9.60;99.90;;;;;;5017240;28;20522;-48
2023/12/28 12:46:40;;;;;;;3.70;1.23;;;9.60;99.90;;;;;;5024022;28;20429;-46
2023/12/28 12:49:08;;;;;;;4.80;1.77;;;9.60;99.90;;;;;;5023320;28;20499;-48
2023/12/28 12:51:36;;;;;;;8.33;2.13;;;9.60;99.90;;;;;;5020709;28;20448;-48
2023/12/28 12:54:05;;;;;;;3.00;1.20;;;9.60;99.90;;;;;;5023198;28;20526;-49
2023/12/28 12:56:34;;;;;;;2.97;1.80;;;9.60;99.90;;;;;;5023689;28;20456;-49
2023/12/28 12:59:02;;;;;;;3.50;1.80;;;9.60;99.90;;;;;;5017134;28;20547;-50
2023/12/28 13:01:29;;;;;;;8.70;2.23;;;9.60;99.90;;;;;;5010090;28;20516;-47
2023/12/28 13:03:58;;;;;;;4.43;1.53;;;9.70;99.90;;;;;;5010276;28;20482;-50
2023/12/28 13:06:26;;;;;;;4.47;1.20;;;9.70;99.90;;;;;;5008011;28;20823;-48
2023/12/28 13:08:54;;;;;;;2.23;1.10;;;9.70;99.90;;;;;;5010757;28;20564;-48
2023/12/28 13:11:26;;;;;;;4.53;2.10;;;9.70;99.90;;;;;;5010151;28;20447;-46